sensor_id;sensor_type;location;lat;lon;timestamp;temperature;humidity
14705;DHT22;7442;50.840;3.396;2023-05-19T00:01:33;19.70;57.10
14705;DHT22;7442;50.840;3.396;2023-05-19T00:04:22;19.70;57.20
14705;DHT22;7442;50.840;3.396;2023-05-19T00:07:10;19.70;57.20
14705;DHT22;7442;50.840;3.396;2023-05-19T00:09:56;19.70;57.10
14705;DHT22;7442;50.840;3.396;2023-05-19T00:12:42;19.70;57.10
14705;DHT22;7442;50.840;3.396;2023-05-19T00:15:30;19.70;57.10
14705;DHT22;7442;50.840;3.396;2023-05-19T00:18:16;19.70;57.10
14705;DHT22;7442;50.840;3.396;2023-05-19T00:21:02;19.60;57.00
14705;DHT22;7442;50.840;3.396;2023-05-19T00:23:48;19.60;57.10
14705;DHT22;7442;50.840;3.396;2023-05-19T00:26:35;19.60;57.10
14705;DHT22;7442;50.840;3.396;2023-05-19T00:29:21;19.60;57.10
14705;DHT22;7442;50.840;3.396;2023-05-19T00:32:07;19.60;57.10
14705;DHT22;7442;50.840;3.396;2023-05-19T00:34:54;19.60;57.10
14705;DHT22;7442;50.840;3.396;2023-05-19T00:37:40;19.60;57.10
14705;DHT22;7442;50.840;3.396;2023-05-19T00:40:27;19.50;57.10
14705;DHT22;7442;50.840;3.396;2023-05-19T00:43:15;19.50;57.20
14705;DHT22;7442;50.840;3.396;2023-05-19T00:46:01;19.50;57.20
14705;DHT22;7442;50.840;3.396;2023-05-19T00:48:48;19.50;57.20
14705;DHT22;7442;50.840;3.396;2023-05-19T00:51:35;19.50;57.20
14705;DHT22;7442;50.840;3.396;2023-05-19T00:54:21;19.50;57.20
14705;DHT22;7442;50.840;3.396;2023-05-19T00:57:08;19.40;57.20
14705;DHT22;7442;50.840;3.396;2023-05-19T00:59:55;19.40;57.20
14705;DHT22;7442;50.840;3.396;2023-05-19T01:02:42;19.40;57.20
14705;DHT22;7442;50.840;3.396;2023-05-19T01:05:28;19.40;57.20
14705;DHT22;7442;50.840;3.396;2023-05-19T01:08:15;19.40;57.30
14705;DHT22;7442;50.840;3.396;2023-05-19T01:11:07;19.30;57.30
14705;DHT22;7442;50.840;3.396;2023-05-19T01:13:52;19.40;57.30
14705;DHT22;7442;50.840;3.396;2023-05-19T01:16:44;19.30;57.20
14705;DHT22;7442;50.840;3.396;2023-05-19T01:19:49;19.30;57.10
14705;DHT22;7442;50.840;3.396;2023-05-19T01:31:29;19.30;57.10
14705;DHT22;7442;50.840;3.396;2023-05-19T01:34:16;19.30;57.10
14705;DHT22;7442;50.840;3.396;2023-05-19T01:37:04;19.30;57.20
14705;DHT22;7442;50.840;3.396;2023-05-19T01:39:52;19.20;57.00
14705;DHT22;7442;50.840;3.396;2023-05-19T01:42:40;19.20;57.10
14705;DHT22;7442;50.840;3.396;2023-05-19T01:45:31;19.20;57.10
14705;DHT22;7442;50.840;3.396;2023-05-19T01:48:18;19.20;57.20
14705;DHT22;7442;50.840;3.396;2023-05-19T01:51:05;19.20;57.10
14705;DHT22;7442;50.840;3.396;2023-05-19T01:53:51;19.20;57.20
14705;DHT22;7442;50.840;3.396;2023-05-19T01:56:58;19.20;57.20
14705;DHT22;7442;50.840;3.396;2023-05-19T02:00:05;19.20;57.20
14705;DHT22;7442;50.840;3.396;2023-05-19T02:03:19;19.20;57.20
14705;DHT22;7442;50.840;3.396;2023-05-19T02:09:23;19.10;57.20
14705;DHT22;7442;50.840;3.396;2023-05-19T02:12:23;19.10;57.20
14705;DHT22;7442;50.840;3.396;2023-05-19T02:15:16;19.10;57.20
14705;DHT22;7442;50.840;3.396;2023-05-19T02:18:03;19.10;57.20
14705;DHT22;7442;50.840;3.396;2023-05-19T02:20:49;19.10;57.20
14705;DHT22;7442;50.840;3.396;2023-05-19T02:23:35;19.00;57.20
14705;DHT22;7442;50.840;3.396;2023-05-19T02:26:22;19.00;57.10
14705;DHT22;7442;50.840;3.396;2023-05-19T02:29:08;19.10;57.20
14705;DHT22;7442;50.840;3.396;2023-05-19T02:31:54;19.10;57.20
14705;DHT22;7442;50.840;3.396;2023-05-19T02:34:40;19.00;57.70
14705;DHT22;7442;50.840;3.396;2023-05-19T02:37:28;19.00;57.10
14705;DHT22;7442;50.840;3.396;2023-05-19T02:40:15;19.00;57.10
14705;DHT22;7442;50.840;3.396;2023-05-19T02:43:01;19.00;57.10
14705;DHT22;7442;50.840;3.396;2023-05-19T02:45:48;19.00;57.10
14705;DHT22;7442;50.840;3.396;2023-05-19T02:48:34;19.00;57.20
14705;DHT22;7442;50.840;3.396;2023-05-19T02:51:20;19.00;57.10
14705;DHT22;7442;50.840;3.396;2023-05-19T02:54:07;18.90;57.20
14705;DHT22;7442;50.840;3.396;2023-05-19T02:56:53;18.90;57.20
14705;DHT22;7442;50.840;3.396;2023-05-19T02:59:39;18.90;57.20
14705;DHT22;7442;50.840;3.396;2023-05-19T03:02:26;18.90;57.20
14705;DHT22;7442;50.840;3.396;2023-05-19T03:05:13;18.90;57.20
14705;DHT22;7442;50.840;3.396;2023-05-19T03:07:59;18.90;57.10
14705;DHT22;7442;50.840;3.396;2023-05-19T03:10:46;18.90;57.20
14705;DHT22;7442;50.840;3.396;2023-05-19T03:13:32;18.80;57.10
14705;DHT22;7442;50.840;3.396;2023-05-19T03:16:19;18.80;57.20
14705;DHT22;7442;50.840;3.396;2023-05-19T03:19:06;18.80;57.20
14705;DHT22;7442;50.840;3.396;2023-05-19T03:21:52;18.80;57.20
14705;DHT22;7442;50.840;3.396;2023-05-19T03:24:39;18.80;57.20
14705;DHT22;7442;50.840;3.396;2023-05-19T03:27:26;18.80;57.20
14705;DHT22;7442;50.840;3.396;2023-05-19T03:30:13;18.80;57.20
14705;DHT22;7442;50.840;3.396;2023-05-19T03:32:59;18.80;57.20
14705;DHT22;7442;50.840;3.396;2023-05-19T03:35:45;18.80;57.20
14705;DHT22;7442;50.840;3.396;2023-05-19T03:38:31;18.70;57.10
14705;DHT22;7442;50.840;3.396;2023-05-19T03:41:18;18.80;57.20
14705;DHT22;7442;50.840;3.396;2023-05-19T03:44:04;18.70;57.10
14705;DHT22;7442;50.840;3.396;2023-05-19T03:46:50;18.70;57.20
14705;DHT22;7442;50.840;3.396;2023-05-19T03:49:36;18.70;57.20
14705;DHT22;7442;50.840;3.396;2023-05-19T03:52:22;18.70;57.20
14705;DHT22;7442;50.840;3.396;2023-05-19T03:55:09;18.70;57.20
14705;DHT22;7442;50.840;3.396;2023-05-19T03:57:55;18.70;57.20
14705;DHT22;7442;50.840;3.396;2023-05-19T04:00:41;18.70;57.20
14705;DHT22;7442;50.840;3.396;2023-05-19T04:03:28;18.70;57.20
14705;DHT22;7442;50.840;3.396;2023-05-19T04:06:14;18.70;57.20
14705;DHT22;7442;50.840;3.396;2023-05-19T04:09:02;18.70;57.20
14705;DHT22;7442;50.840;3.396;2023-05-19T04:11:49;18.70;57.10
14705;DHT22;7442;50.840;3.396;2023-05-19T04:14:36;18.60;57.20
14705;DHT22;7442;50.840;3.396;2023-05-19T04:17:22;18.60;57.10
14705;DHT22;7442;50.840;3.396;2023-05-19T04:20:10;18.60;57.10
14705;DHT22;7442;50.840;3.396;2023-05-19T04:22:57;18.60;57.20
14705;DHT22;7442;50.840;3.396;2023-05-19T04:25:43;18.60;57.10
14705;DHT22;7442;50.840;3.396;2023-05-19T04:28:29;18.60;57.20
14705;DHT22;7442;50.840;3.396;2023-05-19T04:31:16;18.60;57.10
14705;DHT22;7442;50.840;3.396;2023-05-19T04:34:02;18.60;57.20
14705;DHT22;7442;50.840;3.396;2023-05-19T04:36:48;18.60;57.10
14705;DHT22;7442;50.840;3.396;2023-05-19T04:39:39;18.60;57.10
14705;DHT22;7442;50.840;3.396;2023-05-19T04:42:29;18.60;57.10
14705;DHT22;7442;50.840;3.396;2023-05-19T04:45:17;18.60;57.10
14705;DHT22;7442;50.840;3.396;2023-05-19T04:48:03;18.60;57.10
14705;DHT22;7442;50.840;3.396;2023-05-19T04:50:50;18.60;57.10
14705;DHT22;7442;50.840;3.396;2023-05-19T04:53:37;18.60;57.10
14705;DHT22;7442;50.840;3.396;2023-05-19T04:56:24;18.60;57.10
14705;DHT22;7442;50.840;3.396;2023-05-19T04:59:11;18.60;57.10
14705;DHT22;7442;50.840;3.396;2023-05-19T05:01:57;18.60;57.10
14705;DHT22;7442;50.840;3.396;2023-05-19T05:04:44;18.50;57.10
14705;DHT22;7442;50.840;3.396;2023-05-19T05:07:30;18.60;57.10
14705;DHT22;7442;50.840;3.396;2023-05-19T05:10:17;18.60;57.10
14705;DHT22;7442;50.840;3.396;2023-05-19T05:13:03;18.60;57.00
14705;DHT22;7442;50.840;3.396;2023-05-19T05:15:50;18.60;57.00
14705;DHT22;7442;50.840;3.396;2023-05-19T05:18:36;18.60;57.20
14705;DHT22;7442;50.840;3.396;2023-05-19T05:21:23;18.70;57.30
14705;DHT22;7442;50.840;3.396;2023-05-19T05:24:11;18.70;57.20
14705;DHT22;7442;50.840;3.396;2023-05-19T05:26:58;18.80;57.10
14705;DHT22;7442;50.840;3.396;2023-05-19T05:29:44;18.80;57.00
14705;DHT22;7442;50.840;3.396;2023-05-19T05:32:30;18.90;57.00
14705;DHT22;7442;50.840;3.396;2023-05-19T05:35:16;18.90;57.00
14705;DHT22;7442;50.840;3.396;2023-05-19T05:38:03;18.90;57.10
14705;DHT22;7442;50.840;3.396;2023-05-19T05:40:49;18.90;57.10
14705;DHT22;7442;50.840;3.396;2023-05-19T05:43:35;18.90;57.10
14705;DHT22;7442;50.840;3.396;2023-05-19T05:46:23;18.90;57.10
14705;DHT22;7442;50.840;3.396;2023-05-19T05:49:10;18.90;57.10
14705;DHT22;7442;50.840;3.396;2023-05-19T05:51:58;19.00;57.10
14705;DHT22;7442;50.840;3.396;2023-05-19T05:54:44;19.10;57.10
14705;DHT22;7442;50.840;3.396;2023-05-19T05:57:30;19.10;57.10
14705;DHT22;7442;50.840;3.396;2023-05-19T06:00:19;19.10;57.00
14705;DHT22;7442;50.840;3.396;2023-05-19T06:03:06;19.20;57.00
14705;DHT22;7442;50.840;3.396;2023-05-19T06:05:52;19.20;57.00
14705;DHT22;7442;50.840;3.396;2023-05-19T06:08:39;19.40;56.70
14705;DHT22;7442;50.840;3.396;2023-05-19T06:11:25;19.40;56.50
14705;DHT22;7442;50.840;3.396;2023-05-19T06:14:12;19.50;56.20
14705;DHT22;7442;50.840;3.396;2023-05-19T06:16:59;19.60;56.20
14705;DHT22;7442;50.840;3.396;2023-05-19T06:19:45;19.60;56.20
14705;DHT22;7442;50.840;3.396;2023-05-19T06:22:31;19.50;56.30
14705;DHT22;7442;50.840;3.396;2023-05-19T06:25:18;19.50;56.40
14705;DHT22;7442;50.840;3.396;2023-05-19T06:28:05;19.40;57.20
14705;DHT22;7442;50.840;3.396;2023-05-19T06:30:51;19.40;57.50
14705;DHT22;7442;50.840;3.396;2023-05-19T06:33:37;19.40;57.60
14705;DHT22;7442;50.840;3.396;2023-05-19T06:36:23;19.40;57.80
14705;DHT22;7442;50.840;3.396;2023-05-19T06:39:10;19.50;57.80
14705;DHT22;7442;50.840;3.396;2023-05-19T06:41:57;19.50;58.00
14705;DHT22;7442;50.840;3.396;2023-05-19T06:44:44;19.50;58.30
14705;DHT22;7442;50.840;3.396;2023-05-19T06:47:30;19.50;58.40
14705;DHT22;7442;50.840;3.396;2023-05-19T06:50:17;19.60;58.60
14705;DHT22;7442;50.840;3.396;2023-05-19T06:53:04;19.60;58.60
14705;DHT22;7442;50.840;3.396;2023-05-19T06:55:50;19.60;58.50
14705;DHT22;7442;50.840;3.396;2023-05-19T06:58:36;19.60;58.20
14705;DHT22;7442;50.840;3.396;2023-05-19T07:01:23;19.60;57.80
14705;DHT22;7442;50.840;3.396;2023-05-19T07:04:11;19.60;57.70
14705;DHT22;7442;50.840;3.396;2023-05-19T07:06:58;19.70;57.50
14705;DHT22;7442;50.840;3.396;2023-05-19T07:09:44;19.70;57.30
14705;DHT22;7442;50.840;3.396;2023-05-19T07:12:30;19.70;57.20
14705;DHT22;7442;50.840;3.396;2023-05-19T07:15:16;19.70;57.10
14705;DHT22;7442;50.840;3.396;2023-05-19T07:18:03;19.80;56.90
14705;DHT22;7442;50.840;3.396;2023-05-19T07:20:51;19.80;56.70
14705;DHT22;7442;50.840;3.396;2023-05-19T07:23:38;19.90;56.40
14705;DHT22;7442;50.840;3.396;2023-05-19T07:26:24;19.90;56.20
14705;DHT22;7442;50.840;3.396;2023-05-19T07:29:11;20.10;55.70
14705;DHT22;7442;50.840;3.396;2023-05-19T07:31:57;20.60;54.40
14705;DHT22;7442;50.840;3.396;2023-05-19T07:34:44;23.60;46.70
14705;DHT22;7442;50.840;3.396;2023-05-19T07:37:30;24.50;45.20
14705;DHT22;7442;50.840;3.396;2023-05-19T07:40:16;25.90;42.20
14705;DHT22;7442;50.840;3.396;2023-05-19T07:43:03;26.70;40.60
14705;DHT22;7442;50.840;3.396;2023-05-19T07:45:51;27.10;39.40
14705;DHT22;7442;50.840;3.396;2023-05-19T07:48:37;27.60;38.60
14705;DHT22;7442;50.840;3.396;2023-05-19T07:51:23;27.80;38.20
14705;DHT22;7442;50.840;3.396;2023-05-19T07:54:09;28.10;37.60
14705;DHT22;7442;50.840;3.396;2023-05-19T07:56:56;28.50;36.90
14705;DHT22;7442;50.840;3.396;2023-05-19T07:59:42;28.60;36.60
14705;DHT22;7442;50.840;3.396;2023-05-19T08:02:28;28.70;36.10
14705;DHT22;7442;50.840;3.396;2023-05-19T08:05:15;28.20;35.90
14705;DHT22;7442;50.840;3.396;2023-05-19T08:08:01;28.40;35.70
14705;DHT22;7442;50.840;3.396;2023-05-19T08:10:47;28.60;35.20
14705;DHT22;7442;50.840;3.396;2023-05-19T08:13:34;28.40;35.20
14705;DHT22;7442;50.840;3.396;2023-05-19T08:16:20;28.50;35.30
14705;DHT22;7442;50.840;3.396;2023-05-19T08:19:07;28.60;34.40
14705;DHT22;7442;50.840;3.396;2023-05-19T08:21:53;28.50;35.20
14705;DHT22;7442;50.840;3.396;2023-05-19T08:24:40;28.20;36.10
14705;DHT22;7442;50.840;3.396;2023-05-19T08:27:27;26.80;38.40
14705;DHT22;7442;50.840;3.396;2023-05-19T08:30:14;25.40;40.90
14705;DHT22;7442;50.840;3.396;2023-05-19T08:33:00;24.50;42.70
14705;DHT22;7442;50.840;3.396;2023-05-19T08:35:47;23.90;43.70
14705;DHT22;7442;50.840;3.396;2023-05-19T08:38:33;23.50;44.10
14705;DHT22;7442;50.840;3.396;2023-05-19T08:41:20;23.10;45.20
14705;DHT22;7442;50.840;3.396;2023-05-19T08:44:08;22.90;46.00
14705;DHT22;7442;50.840;3.396;2023-05-19T08:46:59;22.70;46.00
14705;DHT22;7442;50.840;3.396;2023-05-19T08:49:51;22.60;46.50
14705;DHT22;7442;50.840;3.396;2023-05-19T08:52:51;22.60;46.80
14705;DHT22;7442;50.840;3.396;2023-05-19T08:55:49;22.50;47.00
14705;DHT22;7442;50.840;3.396;2023-05-19T08:58:41;22.40;47.40
14705;DHT22;7442;50.840;3.396;2023-05-19T09:01:28;22.40;47.40
14705;DHT22;7442;50.840;3.396;2023-05-19T09:04:15;22.40;46.80
14705;DHT22;7442;50.840;3.396;2023-05-19T09:07:03;22.30;47.30
14705;DHT22;7442;50.840;3.396;2023-05-19T09:09:50;22.20;46.60
14705;DHT22;7442;50.840;3.396;2023-05-19T09:12:36;22.10;46.90
14705;DHT22;7442;50.840;3.396;2023-05-19T09:15:25;22.10;46.90
14705;DHT22;7442;50.840;3.396;2023-05-19T09:20:42;22.10;47.20
14705;DHT22;7442;50.840;3.396;2023-05-19T09:23:30;22.00;47.00
14705;DHT22;7442;50.840;3.396;2023-05-19T09:26:18;22.00;47.10
14705;DHT22;7442;50.840;3.396;2023-05-19T09:29:15;22.00;47.10
14705;DHT22;7442;50.840;3.396;2023-05-19T09:32:02;22.00;47.20
14705;DHT22;7442;50.840;3.396;2023-05-19T09:34:49;21.90;47.60
14705;DHT22;7442;50.840;3.396;2023-05-19T09:37:40;21.90;47.80
14705;DHT22;7442;50.840;3.396;2023-05-19T09:40:28;21.90;47.40
14705;DHT22;7442;50.840;3.396;2023-05-19T09:43:15;21.90;47.70
14705;DHT22;7442;50.840;3.396;2023-05-19T09:46:08;21.70;48.30
14705;DHT22;7442;50.840;3.396;2023-05-19T09:48:59;21.70;47.30
14705;DHT22;7442;50.840;3.396;2023-05-19T09:51:47;21.70;47.50
14705;DHT22;7442;50.840;3.396;2023-05-19T09:54:35;21.80;47.50
14705;DHT22;7442;50.840;3.396;2023-05-19T09:57:25;21.80;47.70
14705;DHT22;7442;50.840;3.396;2023-05-19T10:00:14;21.80;47.40
14705;DHT22;7442;50.840;3.396;2023-05-19T10:03:04;21.80;47.30
14705;DHT22;7442;50.840;3.396;2023-05-19T10:05:52;21.70;47.40
14705;DHT22;7442;50.840;3.396;2023-05-19T10:08:38;21.70;47.30
14705;DHT22;7442;50.840;3.396;2023-05-19T10:11:26;21.70;47.20
14705;DHT22;7442;50.840;3.396;2023-05-19T10:14:15;21.70;47.50
14705;DHT22;7442;50.840;3.396;2023-05-19T10:17:03;21.70;47.40
14705;DHT22;7442;50.840;3.396;2023-05-19T10:19:51;21.80;47.70
14705;DHT22;7442;50.840;3.396;2023-05-19T10:22:40;21.80;47.50
14705;DHT22;7442;50.840;3.396;2023-05-19T10:25:26;21.60;47.30
14705;DHT22;7442;50.840;3.396;2023-05-19T10:28:16;21.60;46.20
14705;DHT22;7442;50.840;3.396;2023-05-19T10:31:08;21.70;46.90
14705;DHT22;7442;50.840;3.396;2023-05-19T10:34:06;21.80;47.00
14705;DHT22;7442;50.840;3.396;2023-05-19T10:37:23;21.80;46.70
14705;DHT22;7442;50.840;3.396;2023-05-19T10:40:24;21.80;46.90
14705;DHT22;7442;50.840;3.396;2023-05-19T10:46:29;21.90;47.40
14705;DHT22;7442;50.840;3.396;2023-05-19T10:49:22;21.90;47.90
14705;DHT22;7442;50.840;3.396;2023-05-19T10:52:19;22.00;48.20
14705;DHT22;7442;50.840;3.396;2023-05-19T10:55:11;22.00;48.20
14705;DHT22;7442;50.840;3.396;2023-05-19T10:58:01;22.00;48.50
14705;DHT22;7442;50.840;3.396;2023-05-19T11:00:50;22.00;48.30
14705;DHT22;7442;50.840;3.396;2023-05-19T11:03:51;22.00;48.80
14705;DHT22;7442;50.840;3.396;2023-05-19T11:06:37;22.00;48.70
14705;DHT22;7442;50.840;3.396;2023-05-19T11:09:25;22.10;48.80
14705;DHT22;7442;50.840;3.396;2023-05-19T11:12:12;22.00;49.00
14705;DHT22;7442;50.840;3.396;2023-05-19T11:15:01;22.00;49.20
14705;DHT22;7442;50.840;3.396;2023-05-19T11:17:48;22.10;49.10
14705;DHT22;7442;50.840;3.396;2023-05-19T11:20:37;22.20;49.20
14705;DHT22;7442;50.840;3.396;2023-05-19T11:23:25;22.20;49.30
14705;DHT22;7442;50.840;3.396;2023-05-19T11:26:12;22.20;49.30
14705;DHT22;7442;50.840;3.396;2023-05-19T11:28:58;22.10;49.50
14705;DHT22;7442;50.840;3.396;2023-05-19T11:31:45;22.10;49.50
14705;DHT22;7442;50.840;3.396;2023-05-19T11:34:33;22.10;49.40
14705;DHT22;7442;50.840;3.396;2023-05-19T11:37:19;22.10;49.30
14705;DHT22;7442;50.840;3.396;2023-05-19T11:40:06;22.20;49.90
14705;DHT22;7442;50.840;3.396;2023-05-19T11:42:53;22.10;50.00
14705;DHT22;7442;50.840;3.396;2023-05-19T11:45:39;22.20;49.90
14705;DHT22;7442;50.840;3.396;2023-05-19T11:48:26;22.20;49.80
14705;DHT22;7442;50.840;3.396;2023-05-19T11:51:13;22.20;49.90
14705;DHT22;7442;50.840;3.396;2023-05-19T11:54:02;22.20;49.50
14705;DHT22;7442;50.840;3.396;2023-05-19T11:56:48;22.10;48.70
14705;DHT22;7442;50.840;3.396;2023-05-19T11:59:36;22.10;49.20
14705;DHT22;7442;50.840;3.396;2023-05-19T12:02:25;22.20;48.90
14705;DHT22;7442;50.840;3.396;2023-05-19T12:05:22;22.20;49.30
14705;DHT22;7442;50.840;3.396;2023-05-19T12:08:10;22.20;49.30
14705;DHT22;7442;50.840;3.396;2023-05-19T12:10:56;22.20;50.00
14705;DHT22;7442;50.840;3.396;2023-05-19T12:13:45;22.20;49.90
14705;DHT22;7442;50.840;3.396;2023-05-19T12:16:33;22.20;49.80
14705;DHT22;7442;50.840;3.396;2023-05-19T12:19:22;22.20;49.00
14705;DHT22;7442;50.840;3.396;2023-05-19T12:22:10;22.20;47.70
14705;DHT22;7442;50.840;3.396;2023-05-19T12:24:57;22.10;46.40
14705;DHT22;7442;50.840;3.396;2023-05-19T12:27:43;22.10;46.20
14705;DHT22;7442;50.840;3.396;2023-05-19T12:30:30;22.10;45.60
14705;DHT22;7442;50.840;3.396;2023-05-19T12:33:21;22.10;45.40
14705;DHT22;7442;50.840;3.396;2023-05-19T12:36:05;22.00;45.80
14705;DHT22;7442;50.840;3.396;2023-05-19T12:38:53;22.00;46.60
14705;DHT22;7442;50.840;3.396;2023-05-19T12:41:39;22.00;47.30
14705;DHT22;7442;50.840;3.396;2023-05-19T12:44:29;22.00;46.80
14705;DHT22;7442;50.840;3.396;2023-05-19T12:47:17;22.00;46.40
14705;DHT22;7442;50.840;3.396;2023-05-19T12:50:08;22.00;46.50
14705;DHT22;7442;50.840;3.396;2023-05-19T12:52:54;22.00;47.60
14705;DHT22;7442;50.840;3.396;2023-05-19T12:55:43;22.00;48.00
14705;DHT22;7442;50.840;3.396;2023-05-19T12:58:32;22.00;48.40
14705;DHT22;7442;50.840;3.396;2023-05-19T13:01:18;22.00;48.60
14705;DHT22;7442;50.840;3.396;2023-05-19T13:04:04;22.00;46.80
14705;DHT22;7442;50.840;3.396;2023-05-19T13:06:52;21.90;45.00
14705;DHT22;7442;50.840;3.396;2023-05-19T13:09:38;21.90;45.30
14705;DHT22;7442;50.840;3.396;2023-05-19T13:12:24;21.90;45.60
14705;DHT22;7442;50.840;3.396;2023-05-19T13:15:10;21.90;47.30
14705;DHT22;7442;50.840;3.396;2023-05-19T13:18:01;21.90;47.80
14705;DHT22;7442;50.840;3.396;2023-05-19T13:20:48;21.90;48.10
14705;DHT22;7442;50.840;3.396;2023-05-19T13:23:35;21.90;48.40
14705;DHT22;7442;50.840;3.396;2023-05-19T13:26:21;21.90;48.60
14705;DHT22;7442;50.840;3.396;2023-05-19T13:29:08;21.90;48.80
14705;DHT22;7442;50.840;3.396;2023-05-19T13:31:55;21.90;48.90
14705;DHT22;7442;50.840;3.396;2023-05-19T13:34:43;21.90;49.10
14705;DHT22;7442;50.840;3.396;2023-05-19T13:37:29;21.90;49.20
14705;DHT22;7442;50.840;3.396;2023-05-19T13:40:16;21.90;49.40
14705;DHT22;7442;50.840;3.396;2023-05-19T13:43:03;21.90;49.60
14705;DHT22;7442;50.840;3.396;2023-05-19T13:45:50;21.80;49.80
14705;DHT22;7442;50.840;3.396;2023-05-19T13:48:36;21.80;49.90
14705;DHT22;7442;50.840;3.396;2023-05-19T13:51:23;21.80;50.00
14705;DHT22;7442;50.840;3.396;2023-05-19T13:54:09;21.80;50.10
14705;DHT22;7442;50.840;3.396;2023-05-19T13:56:56;21.80;49.60
14705;DHT22;7442;50.840;3.396;2023-05-19T13:59:42;21.80;50.20
14705;DHT22;7442;50.840;3.396;2023-05-19T14:02:31;21.80;50.30
14705;DHT22;7442;50.840;3.396;2023-05-19T14:05:18;21.80;50.40
14705;DHT22;7442;50.840;3.396;2023-05-19T14:08:04;21.90;50.50
14705;DHT22;7442;50.840;3.396;2023-05-19T14:10:51;21.90;50.60
14705;DHT22;7442;50.840;3.396;2023-05-19T14:13:37;21.90;50.70
14705;DHT22;7442;50.840;3.396;2023-05-19T14:16:23;21.90;50.90
14705;DHT22;7442;50.840;3.396;2023-05-19T14:19:10;21.80;50.90
14705;DHT22;7442;50.840;3.396;2023-05-19T14:21:56;21.80;50.90
14705;DHT22;7442;50.840;3.396;2023-05-19T14:24:43;21.80;51.00
14705;DHT22;7442;50.840;3.396;2023-05-19T14:27:29;21.80;51.00
14705;DHT22;7442;50.840;3.396;2023-05-19T14:30:22;21.80;51.10
14705;DHT22;7442;50.840;3.396;2023-05-19T14:33:08;21.90;48.20
14705;DHT22;7442;50.840;3.396;2023-05-19T14:35:54;21.80;46.10
14705;DHT22;7442;50.840;3.396;2023-05-19T14:38:41;21.80;46.10
14705;DHT22;7442;50.840;3.396;2023-05-19T14:41:28;21.80;46.30
14705;DHT22;7442;50.840;3.396;2023-05-19T14:44:16;21.80;47.00
14705;DHT22;7442;50.840;3.396;2023-05-19T14:47:08;21.80;46.20
14705;DHT22;7442;50.840;3.396;2023-05-19T14:49:55;21.80;45.50
14705;DHT22;7442;50.840;3.396;2023-05-19T14:52:41;21.80;44.70
14705;DHT22;7442;50.840;3.396;2023-05-19T14:55:28;21.80;44.90
14705;DHT22;7442;50.840;3.396;2023-05-19T14:58:14;21.80;45.50
14705;DHT22;7442;50.840;3.396;2023-05-19T15:01:04;21.80;45.50
14705;DHT22;7442;50.840;3.396;2023-05-19T15:03:56;21.80;46.10
14705;DHT22;7442;50.840;3.396;2023-05-19T15:06:43;21.80;46.40
14705;DHT22;7442;50.840;3.396;2023-05-19T15:09:29;21.80;46.10
14705;DHT22;7442;50.840;3.396;2023-05-19T15:12:16;21.80;44.60
14705;DHT22;7442;50.840;3.396;2023-05-19T15:15:03;21.80;44.50
14705;DHT22;7442;50.840;3.396;2023-05-19T15:17:49;21.80;44.30
14705;DHT22;7442;50.840;3.396;2023-05-19T15:20:38;21.80;43.50
14705;DHT22;7442;50.840;3.396;2023-05-19T15:23:24;21.80;44.00
14705;DHT22;7442;50.840;3.396;2023-05-19T15:26:10;21.80;43.20
14705;DHT22;7442;50.840;3.396;2023-05-19T15:28:56;21.70;43.00
14705;DHT22;7442;50.840;3.396;2023-05-19T15:31:42;21.70;43.40
14705;DHT22;7442;50.840;3.396;2023-05-19T15:34:28;21.70;43.20
14705;DHT22;7442;50.840;3.396;2023-05-19T15:37:15;21.70;42.50
14705;DHT22;7442;50.840;3.396;2023-05-19T15:40:02;21.70;43.00
14705;DHT22;7442;50.840;3.396;2023-05-19T15:42:49;21.70;43.20
14705;DHT22;7442;50.840;3.396;2023-05-19T15:45:36;21.70;43.40
14705;DHT22;7442;50.840;3.396;2023-05-19T15:48:23;21.70;43.60
14705;DHT22;7442;50.840;3.396;2023-05-19T15:51:10;21.70;45.40
14705;DHT22;7442;50.840;3.396;2023-05-19T15:53:57;21.70;46.80
14705;DHT22;7442;50.840;3.396;2023-05-19T15:56:43;21.70;47.50
14705;DHT22;7442;50.840;3.396;2023-05-19T15:59:29;21.70;47.60
14705;DHT22;7442;50.840;3.396;2023-05-19T16:02:16;21.70;47.90
14705;DHT22;7442;50.840;3.396;2023-05-19T16:05:02;21.70;48.20
14705;DHT22;7442;50.840;3.396;2023-05-19T16:07:49;21.70;48.30
14705;DHT22;7442;50.840;3.396;2023-05-19T16:10:35;21.70;48.70
14705;DHT22;7442;50.840;3.396;2023-05-19T16:13:21;21.60;48.70
14705;DHT22;7442;50.840;3.396;2023-05-19T16:16:08;21.60;49.20
14705;DHT22;7442;50.840;3.396;2023-05-19T16:18:54;21.60;49.60
14705;DHT22;7442;50.840;3.396;2023-05-19T16:21:40;21.60;49.50
14705;DHT22;7442;50.840;3.396;2023-05-19T16:24:27;21.50;49.40
14705;DHT22;7442;50.840;3.396;2023-05-19T16:27:13;21.50;49.60
14705;DHT22;7442;50.840;3.396;2023-05-19T16:29:59;21.50;50.20
14705;DHT22;7442;50.840;3.396;2023-05-19T16:32:48;21.50;50.10
14705;DHT22;7442;50.840;3.396;2023-05-19T16:35:35;21.50;50.30
14705;DHT22;7442;50.840;3.396;2023-05-19T16:38:21;21.50;50.30
14705;DHT22;7442;50.840;3.396;2023-05-19T16:41:12;21.50;50.40
14705;DHT22;7442;50.840;3.396;2023-05-19T16:43:58;21.50;50.50
14705;DHT22;7442;50.840;3.396;2023-05-19T16:46:46;21.60;50.60
14705;DHT22;7442;50.840;3.396;2023-05-19T16:49:32;21.60;50.70
14705;DHT22;7442;50.840;3.396;2023-05-19T16:52:18;21.50;50.90
14705;DHT22;7442;50.840;3.396;2023-05-19T16:55:06;21.50;51.00
14705;DHT22;7442;50.840;3.396;2023-05-19T16:57:54;21.50;51.00
14705;DHT22;7442;50.840;3.396;2023-05-19T17:00:44;21.50;51.20
14705;DHT22;7442;50.840;3.396;2023-05-19T17:03:30;21.50;51.20
14705;DHT22;7442;50.840;3.396;2023-05-19T17:06:23;21.50;51.30
14705;DHT22;7442;50.840;3.396;2023-05-19T17:09:09;21.50;51.30
14705;DHT22;7442;50.840;3.396;2023-05-19T17:11:55;21.40;51.40
14705;DHT22;7442;50.840;3.396;2023-05-19T17:14:42;21.50;51.30
14705;DHT22;7442;50.840;3.396;2023-05-19T17:17:28;21.50;51.50
14705;DHT22;7442;50.840;3.396;2023-05-19T17:20:14;21.40;51.70
14705;DHT22;7442;50.840;3.396;2023-05-19T17:22:48;21.50;51.80
14705;DHT22;7442;50.840;3.396;2023-05-19T17:25:35;21.50;51.80
14705;DHT22;7442;50.840;3.396;2023-05-19T17:28:21;21.40;51.80
14705;DHT22;7442;50.840;3.396;2023-05-19T17:31:11;21.40;51.80
14705;DHT22;7442;50.840;3.396;2023-05-19T17:33:57;21.40;51.90
14705;DHT22;7442;50.840;3.396;2023-05-19T17:36:43;21.50;51.90
14705;DHT22;7442;50.840;3.396;2023-05-19T17:39:29;21.60;51.70
14705;DHT22;7442;50.840;3.396;2023-05-19T17:42:15;21.60;51.40
14705;DHT22;7442;50.840;3.396;2023-05-19T17:45:02;21.70;51.40
14705;DHT22;7442;50.840;3.396;2023-05-19T17:47:49;21.60;51.40
14705;DHT22;7442;50.840;3.396;2023-05-19T17:50:36;21.70;51.50
14705;DHT22;7442;50.840;3.396;2023-05-19T17:53:23;21.70;51.20
14705;DHT22;7442;50.840;3.396;2023-05-19T17:56:10;21.60;51.10
14705;DHT22;7442;50.840;3.396;2023-05-19T17:58:57;21.70;51.30
14705;DHT22;7442;50.840;3.396;2023-05-19T18:01:44;21.70;51.20
14705;DHT22;7442;50.840;3.396;2023-05-19T18:04:32;21.70;51.00
14705;DHT22;7442;50.840;3.396;2023-05-19T18:07:18;21.70;51.10
14705;DHT22;7442;50.840;3.396;2023-05-19T18:10:08;21.70;51.20
14705;DHT22;7442;50.840;3.396;2023-05-19T18:12:54;21.70;51.30